METAR AND TAF INFORMATION

METAR FOR BIKF
ADDS - METARS form results

(0211 UTC 05 December 2022)
Data provider http://aviationweather.gov/metar/data/
 
METAR text: BIKF 050200Z 36010KT 9999 OVC018 04/02 Q1040
Conditions at: BIKF (KEFLAVIK (CIV/MI, IS) observed 0200 UTC 05 December 2022
Temperature: 4.0°C (39°F)
Dewpoint: 2.0°C (36°F) [RH = 87%]
Pressure (altimeter): 30.71 inches Hg (1040.0 mb)
Winds: from the N (360 degrees) at 12 MPH (10 knots; 5.1 m/s)
Visibility: 6 or more miles (10+ km)
Ceiling: 1800 feet AGL
Clouds: overcast cloud deck at 1800 feet AGL
Weather: no significant weather observed at this time

METAR text: BIKF 050130Z 36008KT 9999 OVC021 04/01 Q1040
Conditions at: BIKF (KEFLAVIK (CIV/MI, IS) observed 0130 UTC 05 December 2022
Temperature: 4.0°C (39°F)
Dewpoint: 1.0°C (34°F) [RH = 81%]
Pressure (altimeter): 30.71 inches Hg (1040.0 mb)
Winds: from the N (360 degrees) at 9 MPH (8 knots; 4.1 m/s)
Visibility: 6 or more miles (10+ km)
Ceiling: 2100 feet AGL
Clouds: overcast cloud deck at 2100 feet AGL
Weather: no significant weather observed at this time

Forecast for: BIKF (KEFLAVIK (CIV/MI, IS)
Text: TAF BIKF 050154Z 0503/0603 21005KT 9999 BKN020 TX04/0503Z TN02/0509Z
Forecast period: 0300 UTC 05 December 2022 to 0300 UTC 06 December 2022
Forecast type: FROM: standard forecast or significant change
Winds: from the SSW (210 degrees) at 6 MPH (5 knots; 2.6 m/s)
Visibility: 6 or more miles (10+ km)
Ceiling: 2000 feet AGL
Clouds: broken clouds at 2000 feet AGL
Weather: no significant weather forecast for this period

 

AIRPORT MAP

 

RUNWAY INFORMATION

Runway 02 Runway length 10019 ft Runway width 197 ft
Runway elevation 137 ft Runway displaced threshold 19 ft Runway heading 360
Runway 20 Runway length 10019 ft Runway width 197 ft
Runway elevation 163 ft Runway displaced threshold 19 ft Runway heading 180
Runway 11 Runway length 10056 ft Runway width 197 ft
Runway elevation 111 ft Runway displaced threshold 43 ft Runway heading 90
Runway 29 Runway length 10056 ft Runway width 197 ft
Runway elevation 171 ft Runway displaced threshold 43 ft Runway heading 270

 

AIRPORT FREQUENCIES

Type A/G Name AIR GND Frequency 131.9 MHZ
Type APP Name APP Frequency 119.3 MHZ
Type ATIS Name ATIS Frequency 128.3 MHZ
Type DEP Name DEP Frequency 119.3 MHZ
Type GND Name GND Frequency 121.9 MHZ
Type OPS Name BASE OPS Frequency 129 MHZ
Type PMSV Name PMSV METR Frequency 125 MHZ
Type TWR Name TWR Frequency 118.3 MHZ

 

AIRPORT NEAR NAVIGATION AIDS

Type VORTAC Name Keflavik Frequency 112000 KHZ
Type NDB Name Keflavik Frequency 392 KHZ
Type NDB Name Oscar Kilo Frequency 364 KHZ